createdAt,value
2022-10-09T02:10:48.264Z,1.58
2022-10-09T02:15:44.476Z,2.17
2022-10-09T02:20:39.218Z,1.98
2022-10-09T02:25:29.215Z,3.03
2022-10-09T02:30:24.407Z,2.33
2022-10-09T02:35:14.526Z,2.13
2022-10-09T02:40:09.738Z,1.92
2022-10-09T02:45:00.299Z,3.10
2022-10-09T02:49:52.735Z,2.72
2022-10-09T02:54:43.615Z,2.90
2022-10-09T02:59:33.819Z,2.58
2022-10-09T03:04:23.779Z,3.17
2022-10-09T03:09:16.166Z,3.33
2022-10-09T03:14:05.971Z,3.00
2022-10-09T03:18:57.240Z,3.00
2022-10-09T03:23:47.649Z,3.47
2022-10-09T03:28:47.053Z,4.30
2022-10-09T03:33:37.440Z,3.50
2022-10-09T03:38:27.438Z,2.85
2022-10-09T03:43:19.170Z,4.03
2022-10-09T03:48:13.393Z,3.33
2022-10-09T03:53:03.504Z,3.50
2022-10-09T03:57:53.169Z,2.83
2022-10-09T04:02:43.142Z,3.40
2022-10-09T04:07:35.564Z,3.65
2022-10-09T04:12:25.348Z,4.00
2022-10-09T04:17:15.232Z,4.13
2022-10-09T04:22:05.030Z,4.40
2022-10-09T04:26:57.369Z,4.88
2022-10-09T04:31:47.158Z,5.27
2022-10-09T04:36:36.901Z,5.25
2022-10-09T04:41:26.693Z,4.90
2022-10-09T04:46:19.503Z,4.80
2022-10-09T04:51:10.364Z,5.05
2022-10-09T04:56:00.087Z,4.70
2022-10-09T05:00:50.885Z,5.57
2022-10-09T05:05:43.391Z,5.65
2022-10-09T05:10:33.613Z,6.13
2022-10-09T05:15:23.399Z,5.90
2022-10-09T05:20:13.265Z,5.20
2022-10-09T05:25:05.973Z,5.30
2022-10-09T05:29:56.930Z,5.43
2022-10-09T05:34:46.629Z,5.20
2022-10-09T05:39:40.427Z,6.05
2022-10-09T05:44:32.838Z,5.70
2022-10-09T05:49:22.852Z,7.97
2022-10-09T05:54:17.175Z,8.88
2022-10-09T05:59:09.985Z,11.40
2022-10-09T06:04:04.120Z,12.10
2022-10-09T06:08:54.350Z,12.30
2022-10-09T06:13:44.818Z,12.17
2022-10-09T06:18:34.545Z,14.23
2022-10-09T06:23:27.143Z,15.30
2022-10-09T06:28:16.987Z,15.65
2022-10-09T06:33:06.923Z,14.38
2022-10-09T06:37:56.623Z,14.70
2022-10-09T06:42:49.097Z,12.52
2022-10-09T06:47:40.419Z,12.13
2022-10-09T06:52:30.067Z,12.30
2022-10-09T06:57:19.731Z,12.37
2022-10-09T07:02:12.153Z,12.07
2022-10-09T07:07:02.887Z,10.98
2022-10-09T07:11:53.169Z,10.73
2022-10-09T07:16:45.640Z,10.00
2022-10-09T07:21:38.416Z,9.30
2022-10-09T07:26:30.456Z,9.35
2022-10-09T07:31:20.598Z,8.57
2022-10-09T07:36:12.427Z,8.07
2022-10-09T07:41:12.911Z,6.00
2022-10-09T07:46:03.006Z,6.07
2022-10-09T07:50:52.991Z,5.20
2022-10-09T07:55:47.622Z,5.00
2022-10-09T08:00:40.198Z,4.50
2022-10-09T08:05:29.956Z,3.53
2022-10-09T08:10:19.734Z,3.00
2022-10-09T08:15:13.091Z,3.87
2022-10-09T08:20:05.660Z,3.78
2022-10-09T08:24:55.433Z,4.38
2022-10-09T08:29:45.151Z,3.15
2022-10-09T08:34:35.147Z,3.58
2022-10-09T08:39:30.965Z,3.45
2022-10-09T08:44:24.051Z,3.42
2022-10-09T08:49:33.673Z,3.03
2022-10-09T08:54:36.108Z,2.42
2022-10-09T08:59:25.902Z,2.55
2022-10-09T09:04:38.384Z,2.25
2022-10-09T09:09:54.755Z,2.30
2022-10-09T09:14:58.449Z,8.35
2022-10-09T09:20:01.097Z,1.98
2022-10-09T20:49:18.827Z,1.92
2022-10-09T20:54:10.037Z,1.90
2022-10-09T20:59:00.834Z,1.60
2022-10-09T21:03:50.851Z,2.20
2022-10-09T21:08:44.391Z,1.98
2022-10-09T21:13:34.162Z,1.92
2022-10-09T21:18:23.789Z,2.20
2022-10-09T21:23:15.086Z,1.93
2022-10-09T21:28:08.530Z,1.98
2022-10-09T21:32:59.026Z,2.03
2022-10-09T21:37:48.821Z,3.05
2022-10-09T21:42:39.711Z,2.22
2022-10-09T21:47:32.267Z,1.90
2022-10-09T21:52:21.975Z,2.30
2022-10-09T21:57:11.891Z,2.33
2022-10-09T22:02:02.978Z,2.10
2022-10-09T22:06:57.247Z,2.63
2022-10-09T22:11:47.239Z,2.15
2022-10-09T22:16:37.032Z,2.67
2022-10-09T22:21:28.671Z,2.13
2022-10-09T22:26:22.790Z,2.50
2022-10-09T22:31:16.027Z,2.45
2022-10-09T22:36:14.301Z,2.30
2022-10-09T22:41:09.619Z,2.20
2022-10-09T22:46:02.090Z,2.40
2022-10-09T22:50:51.861Z,2.40
2022-10-09T22:55:43.099Z,1.90
2022-10-09T23:00:33.011Z,2.28
2022-10-09T23:05:27.370Z,2.30
2022-10-09T23:10:17.221Z,2.23
2022-10-09T23:15:09.295Z,1.70
2022-10-09T23:19:59.420Z,1.85
2022-10-09T23:24:51.877Z,2.35
2022-10-09T23:29:42.150Z,1.90
2022-10-09T23:34:31.948Z,2.10
2022-10-09T23:39:21.716Z,2.33
2022-10-09T23:44:15.960Z,2.58
2022-10-09T23:49:08.171Z,2.40
2022-10-09T23:53:58.260Z,2.63
2022-10-09T23:58:48.824Z,2.90
